sensor_id;sensor_type;location;lat;lon;timestamp;P1;durP1;ratioP1;P2;durP2;ratioP2
9918;SDS011;4998;51.024;13.828;2023-09-19T00:27:35;5.10;;;4.70;;
9918;SDS011;4998;51.024;13.828;2023-09-19T00:30:06;5.57;;;4.70;;
9918;SDS011;4998;51.024;13.828;2023-09-19T00:32:39;5.40;;;4.90;;
9918;SDS011;4998;51.024;13.828;2023-09-19T00:35:07;5.43;;;4.70;;
9918;SDS011;4998;51.024;13.828;2023-09-19T00:37:35;4.90;;;4.50;;
9918;SDS011;4998;51.024;13.828;2023-09-19T00:40:05;5.30;;;4.80;;
9918;SDS011;4998;51.024;13.828;2023-09-19T00:42:38;5.80;;;5.20;;
9918;SDS011;4998;51.024;13.828;2023-09-19T00:45:06;5.00;;;4.60;;
9918;SDS011;4998;51.024;13.828;2023-09-19T00:47:36;5.10;;;4.60;;
9918;SDS011;4998;51.024;13.828;2023-09-19T00:50:04;5.50;;;5.03;;
9918;SDS011;4998;51.024;13.828;2023-09-19T00:52:33;5.93;;;5.33;;
9918;SDS011;4998;51.024;13.828;2023-09-19T00:55:04;5.47;;;4.97;;
9918;SDS011;4998;51.024;13.828;2023-09-19T00:57:33;5.73;;;4.40;;
9918;SDS011;4998;51.024;13.828;2023-09-19T01:00:02;5.10;;;4.70;;
9918;SDS011;4998;51.024;13.828;2023-09-19T01:02:32;4.47;;;4.07;;
9918;SDS011;4998;51.024;13.828;2023-09-19T01:05:00;5.27;;;4.77;;
9918;SDS011;4998;51.024;13.828;2023-09-19T01:07:29;5.03;;;4.60;;
9918;SDS011;4998;51.024;13.828;2023-09-19T01:09:58;5.20;;;4.70;;
9918;SDS011;4998;51.024;13.828;2023-09-19T01:12:28;4.60;;;4.20;;
9918;SDS011;4998;51.024;13.828;2023-09-19T01:15:15;5.83;;;4.50;;
9918;SDS011;4998;51.024;13.828;2023-09-19T01:17:57;4.47;;;4.07;;
9918;SDS011;4998;51.024;13.828;2023-09-19T01:20:34;4.50;;;4.10;;
9918;SDS011;4998;51.024;13.828;2023-09-19T01:23:10;4.80;;;4.40;;
9918;SDS011;4998;51.024;13.828;2023-09-19T01:28:39;4.70;;;4.17;;
9918;SDS011;4998;51.024;13.828;2023-09-19T01:31:31;5.00;;;4.60;;
9918;SDS011;4998;51.024;13.828;2023-09-19T01:34:01;4.80;;;4.40;;
9918;SDS011;4998;51.024;13.828;2023-09-19T01:36:30;4.93;;;4.40;;
9918;SDS011;4998;51.024;13.828;2023-09-19T01:39:02;5.10;;;4.60;;
9918;SDS011;4998;51.024;13.828;2023-09-19T01:41:54;4.63;;;4.23;;
9918;SDS011;4998;51.024;13.828;2023-09-19T01:44:31;4.30;;;4.00;;
9918;SDS011;4998;51.024;13.828;2023-09-19T01:47:11;4.70;;;4.10;;
9918;SDS011;4998;51.024;13.828;2023-09-19T01:49:48;6.63;;;4.30;;
9918;SDS011;4998;51.024;13.828;2023-09-19T01:52:30;4.40;;;4.10;;
9918;SDS011;4998;51.024;13.828;2023-09-19T01:55:05;4.37;;;3.97;;
9918;SDS011;4998;51.024;13.828;2023-09-19T01:57:36;8.33;;;3.80;;
9918;SDS011;4998;51.024;13.828;2023-09-19T02:00:09;3.97;;;3.67;;
9918;SDS011;4998;51.024;13.828;2023-09-19T02:02:40;4.40;;;3.97;;
9918;SDS011;4998;51.024;13.828;2023-09-19T02:05:10;4.07;;;3.67;;
9918;SDS011;4998;51.024;13.828;2023-09-19T02:07:38;4.87;;;4.47;;
9918;SDS011;4998;51.024;13.828;2023-09-19T02:10:06;4.60;;;4.20;;
9918;SDS011;4998;51.024;13.828;2023-09-19T02:12:35;10.73;;;3.90;;
9918;SDS011;4998;51.024;13.828;2023-09-19T02:15:03;4.80;;;3.87;;
9918;SDS011;4998;51.024;13.828;2023-09-19T02:17:32;3.83;;;3.53;;
9918;SDS011;4998;51.024;13.828;2023-09-19T02:20:00;4.00;;;3.70;;
9918;SDS011;4998;51.024;13.828;2023-09-19T02:22:35;5.40;;;3.60;;
9918;SDS011;4998;51.024;13.828;2023-09-19T02:25:04;3.70;;;3.40;;
9918;SDS011;4998;51.024;13.828;2023-09-19T02:27:32;3.80;;;3.50;;
9918;SDS011;4998;51.024;13.828;2023-09-19T02:30:00;4.30;;;3.67;;
9918;SDS011;4998;51.024;13.828;2023-09-19T02:32:29;4.40;;;3.57;;
9918;SDS011;4998;51.024;13.828;2023-09-19T02:34:57;4.80;;;3.80;;
9918;SDS011;4998;51.024;13.828;2023-09-19T02:37:26;3.20;;;3.00;;
9918;SDS011;4998;51.024;13.828;2023-09-19T02:39:53;3.77;;;3.40;;
9918;SDS011;4998;51.024;13.828;2023-09-19T02:42:21;7.00;;;3.90;;
9918;SDS011;4998;51.024;13.828;2023-09-19T02:44:48;3.67;;;3.23;;
9918;SDS011;4998;51.024;13.828;2023-09-19T02:47:16;3.33;;;3.03;;
9918;SDS011;4998;51.024;13.828;2023-09-19T02:49:44;3.10;;;2.90;;
9918;SDS011;4998;51.024;13.828;2023-09-19T02:52:12;5.97;;;3.70;;
9918;SDS011;4998;51.024;13.828;2023-09-19T02:54:41;3.40;;;3.10;;
9918;SDS011;4998;51.024;13.828;2023-09-19T02:57:10;5.30;;;3.20;;
9918;SDS011;4998;51.024;13.828;2023-09-19T02:59:39;3.93;;;3.60;;
9918;SDS011;4998;51.024;13.828;2023-09-19T03:02:07;4.20;;;3.67;;
9918;SDS011;4998;51.024;13.828;2023-09-19T03:04:34;3.43;;;3.17;;
9918;SDS011;4998;51.024;13.828;2023-09-19T03:07:02;3.20;;;3.00;;
9918;SDS011;4998;51.024;13.828;2023-09-19T03:09:31;3.33;;;3.13;;
9918;SDS011;4998;51.024;13.828;2023-09-19T03:12:00;3.33;;;3.07;;
9918;SDS011;4998;51.024;13.828;2023-09-19T03:14:27;3.03;;;2.83;;
9918;SDS011;4998;51.024;13.828;2023-09-19T03:16:55;3.27;;;2.97;;
9918;SDS011;4998;51.024;13.828;2023-09-19T03:19:22;3.53;;;3.23;;
9918;SDS011;4998;51.024;13.828;2023-09-19T03:21:51;4.10;;;3.20;;
9918;SDS011;4998;51.024;13.828;2023-09-19T03:24:18;3.23;;;2.93;;
9918;SDS011;4998;51.024;13.828;2023-09-19T03:26:46;3.50;;;2.93;;
9918;SDS011;4998;51.024;13.828;2023-09-19T03:29:15;5.93;;;3.10;;
9918;SDS011;4998;51.024;13.828;2023-09-19T03:31:42;3.10;;;2.83;;
9918;SDS011;4998;51.024;13.828;2023-09-19T03:34:10;3.53;;;3.23;;
9918;SDS011;4998;51.024;13.828;2023-09-19T03:36:44;4.00;;;3.60;;
9918;SDS011;4998;51.024;13.828;2023-09-19T03:39:12;3.00;;;2.80;;
9918;SDS011;4998;51.024;13.828;2023-09-19T03:41:40;2.87;;;2.67;;
9918;SDS011;4998;51.024;13.828;2023-09-19T03:44:07;4.23;;;2.70;;
9918;SDS011;4998;51.024;13.828;2023-09-19T03:46:35;3.43;;;2.90;;
9918;SDS011;4998;51.024;13.828;2023-09-19T03:49:04;2.70;;;2.50;;
9918;SDS011;4998;51.024;13.828;2023-09-19T03:51:31;2.53;;;2.33;;
9918;SDS011;4998;51.024;13.828;2023-09-19T03:53:59;3.10;;;2.50;;
9918;SDS011;4998;51.024;13.828;2023-09-19T03:56:26;2.47;;;2.27;;
9918;SDS011;4998;51.024;13.828;2023-09-19T03:58:53;2.23;;;2.03;;
9918;SDS011;4998;51.024;13.828;2023-09-19T04:01:21;4.07;;;2.87;;
9918;SDS011;4998;51.024;13.828;2023-09-19T04:03:49;2.60;;;2.40;;
9918;SDS011;4998;51.024;13.828;2023-09-19T04:06:18;2.37;;;2.17;;
9918;SDS011;4998;51.024;13.828;2023-09-19T04:08:45;2.10;;;2.00;;
9918;SDS011;4998;51.024;13.828;2023-09-19T04:11:13;2.77;;;2.50;;
9918;SDS011;4998;51.024;13.828;2023-09-19T04:13:41;2.50;;;1.93;;
9918;SDS011;4998;51.024;13.828;2023-09-19T04:16:08;2.23;;;2.07;;
9918;SDS011;4998;51.024;13.828;2023-09-19T04:18:35;2.37;;;2.17;;
9918;SDS011;4998;51.024;13.828;2023-09-19T04:21:06;1.80;;;1.70;;
9918;SDS011;4998;51.024;13.828;2023-09-19T04:23:33;2.17;;;1.97;;
9918;SDS011;4998;51.024;13.828;2023-09-19T04:26:00;5.33;;;1.60;;
9918;SDS011;4998;51.024;13.828;2023-09-19T04:28:29;1.70;;;1.60;;
9918;SDS011;4998;51.024;13.828;2023-09-19T04:30:56;1.90;;;1.80;;
9918;SDS011;4998;51.024;13.828;2023-09-19T04:33:24;1.97;;;1.60;;
9918;SDS011;4998;51.024;13.828;2023-09-19T04:35:52;1.70;;;1.60;;
9918;SDS011;4998;51.024;13.828;2023-09-19T04:38:22;3.03;;;1.93;;
9918;SDS011;4998;51.024;13.828;2023-09-19T04:40:49;3.70;;;1.63;;
9918;SDS011;4998;51.024;13.828;2023-09-19T04:43:16;3.80;;;1.73;;
9918;SDS011;4998;51.024;13.828;2023-09-19T04:45:43;1.70;;;1.60;;
9918;SDS011;4998;51.024;13.828;2023-09-19T04:48:11;2.67;;;1.80;;
9918;SDS011;4998;51.024;13.828;2023-09-19T04:50:41;1.70;;;1.60;;
9918;SDS011;4998;51.024;13.828;2023-09-19T04:53:09;6.60;;;5.87;;
9918;SDS011;4998;51.024;13.828;2023-09-19T04:55:37;3.40;;;3.10;;
9918;SDS011;4998;51.024;13.828;2023-09-19T04:58:04;5.10;;;2.53;;
9918;SDS011;4998;51.024;13.828;2023-09-19T05:00:31;3.80;;;2.30;;
9918;SDS011;4998;51.024;13.828;2023-09-19T05:03:00;2.03;;;1.93;;
9918;SDS011;4998;51.024;13.828;2023-09-19T05:05:29;2.80;;;1.80;;
9918;SDS011;4998;51.024;13.828;2023-09-19T05:07:56;1.93;;;1.80;;
9918;SDS011;4998;51.024;13.828;2023-09-19T05:10:24;2.10;;;1.90;;
9918;SDS011;4998;51.024;13.828;2023-09-19T05:12:54;1.93;;;1.80;;
9918;SDS011;4998;51.024;13.828;2023-09-19T05:15:21;2.20;;;1.93;;
9918;SDS011;4998;51.024;13.828;2023-09-19T05:17:48;2.33;;;1.70;;
9918;SDS011;4998;51.024;13.828;2023-09-19T05:20:16;1.93;;;1.83;;
9918;SDS011;4998;51.024;13.828;2023-09-19T05:22:50;2.63;;;1.77;;
9918;SDS011;4998;51.024;13.828;2023-09-19T05:25:23;4.60;;;1.90;;
9918;SDS011;4998;51.024;13.828;2023-09-19T05:27:54;2.37;;;1.53;;
9918;SDS011;4998;51.024;13.828;2023-09-19T05:30:22;1.60;;;1.50;;
9918;SDS011;4998;51.024;13.828;2023-09-19T05:32:50;2.00;;;1.60;;
9918;SDS011;4998;51.024;13.828;2023-09-19T05:35:17;1.83;;;1.73;;
9918;SDS011;4998;51.024;13.828;2023-09-19T05:37:47;1.60;;;1.50;;
9918;SDS011;4998;51.024;13.828;2023-09-19T05:40:16;1.50;;;1.40;;
9918;SDS011;4998;51.024;13.828;2023-09-19T05:42:43;1.53;;;1.43;;
9918;SDS011;4998;51.024;13.828;2023-09-19T05:45:12;3.37;;;1.67;;
9918;SDS011;4998;51.024;13.828;2023-09-19T05:47:39;2.40;;;1.40;;
9918;SDS011;4998;51.024;13.828;2023-09-19T05:50:09;2.30;;;1.37;;
9918;SDS011;4998;51.024;13.828;2023-09-19T05:52:36;2.40;;;1.50;;
9918;SDS011;4998;51.024;13.828;2023-09-19T05:55:04;3.13;;;1.90;;
9918;SDS011;4998;51.024;13.828;2023-09-19T05:57:32;5.50;;;1.50;;
9918;SDS011;4998;51.024;13.828;2023-09-19T05:59:59;1.87;;;1.67;;
9918;SDS011;4998;51.024;13.828;2023-09-19T06:02:28;1.60;;;1.30;;
9918;SDS011;4998;51.024;13.828;2023-09-19T06:04:55;1.70;;;1.60;;
9918;SDS011;4998;51.024;13.828;2023-09-19T06:07:23;2.03;;;1.80;;
9918;SDS011;4998;51.024;13.828;2023-09-19T06:09:51;2.37;;;1.83;;
9918;SDS011;4998;51.024;13.828;2023-09-19T06:12:20;2.13;;;1.50;;
9918;SDS011;4998;51.024;13.828;2023-09-19T06:14:47;5.67;;;1.87;;
9918;SDS011;4998;51.024;13.828;2023-09-19T06:17:14;1.60;;;1.50;;
9918;SDS011;4998;51.024;13.828;2023-09-19T06:19:43;1.70;;;1.60;;
9918;SDS011;4998;51.024;13.828;2023-09-19T06:22:14;1.53;;;1.40;;
9918;SDS011;4998;51.024;13.828;2023-09-19T06:24:43;1.73;;;1.63;;
9918;SDS011;4998;51.024;13.828;2023-09-19T06:27:10;1.30;;;1.30;;
9918;SDS011;4998;51.024;13.828;2023-09-19T06:29:37;1.50;;;1.40;;
9918;SDS011;4998;51.024;13.828;2023-09-19T06:32:06;1.73;;;1.60;;
9918;SDS011;4998;51.024;13.828;2023-09-19T06:34:35;1.67;;;1.57;;
9918;SDS011;4998;51.024;13.828;2023-09-19T06:37:05;1.43;;;1.33;;
9918;SDS011;4998;51.024;13.828;2023-09-19T06:39:32;1.43;;;1.33;;
9918;SDS011;4998;51.024;13.828;2023-09-19T06:41:59;1.83;;;1.50;;
9918;SDS011;4998;51.024;13.828;2023-09-19T06:44:27;2.40;;;1.60;;
9918;SDS011;4998;51.024;13.828;2023-09-19T06:46:54;1.73;;;1.63;;
9918;SDS011;4998;51.024;13.828;2023-09-19T06:49:22;1.27;;;1.27;;
9918;SDS011;4998;51.024;13.828;2023-09-19T06:51:49;2.57;;;1.47;;
9918;SDS011;4998;51.024;13.828;2023-09-19T06:54:17;1.53;;;1.43;;
9918;SDS011;4998;51.024;13.828;2023-09-19T06:56:44;1.60;;;1.50;;
9918;SDS011;4998;51.024;13.828;2023-09-19T06:59:11;3.23;;;1.60;;
9918;SDS011;4998;51.024;13.828;2023-09-19T07:01:39;2.50;;;1.77;;
9918;SDS011;4998;51.024;13.828;2023-09-19T07:04:09;3.17;;;1.70;;
9918;SDS011;4998;51.024;13.828;2023-09-19T07:06:38;1.63;;;1.53;;
9918;SDS011;4998;51.024;13.828;2023-09-19T07:09:05;1.30;;;1.03;;
9918;SDS011;4998;51.024;13.828;2023-09-19T07:11:35;1.50;;;1.40;;
9918;SDS011;4998;51.024;13.828;2023-09-19T07:14:02;1.50;;;1.40;;
9918;SDS011;4998;51.024;13.828;2023-09-19T07:16:31;1.57;;;1.27;;
9918;SDS011;4998;51.024;13.828;2023-09-19T07:18:58;1.43;;;1.33;;
9918;SDS011;4998;51.024;13.828;2023-09-19T07:21:25;1.33;;;1.20;;
9918;SDS011;4998;51.024;13.828;2023-09-19T07:23:52;2.50;;;1.47;;
9918;SDS011;4998;51.024;13.828;2023-09-19T07:26:19;2.30;;;1.20;;
9918;SDS011;4998;51.024;13.828;2023-09-19T07:28:47;1.20;;;1.20;;
9918;SDS011;4998;51.024;13.828;2023-09-19T07:31:15;1.57;;;1.17;;
9918;SDS011;4998;51.024;13.828;2023-09-19T07:33:42;1.30;;;1.20;;
9918;SDS011;4998;51.024;13.828;2023-09-19T07:36:10;1.50;;;1.40;;
9918;SDS011;4998;51.024;13.828;2023-09-19T07:38:38;1.87;;;1.30;;
9918;SDS011;4998;51.024;13.828;2023-09-19T07:41:06;1.40;;;1.30;;
9918;SDS011;4998;51.024;13.828;2023-09-19T07:43:34;1.43;;;1.33;;
9918;SDS011;4998;51.024;13.828;2023-09-19T07:46:05;1.47;;;1.30;;
9918;SDS011;4998;51.024;13.828;2023-09-19T07:48:34;1.23;;;1.13;;
9918;SDS011;4998;51.024;13.828;2023-09-19T07:51:03;1.57;;;1.47;;
9918;SDS011;4998;51.024;13.828;2023-09-19T07:53:31;1.97;;;1.23;;
9918;SDS011;4998;51.024;13.828;2023-09-19T07:56:03;1.33;;;1.23;;
9918;SDS011;4998;51.024;13.828;2023-09-19T07:58:31;1.57;;;1.40;;
9918;SDS011;4998;51.024;13.828;2023-09-19T08:01:02;1.30;;;1.10;;
9918;SDS011;4998;51.024;13.828;2023-09-19T08:03:31;1.67;;;1.30;;
9918;SDS011;4998;51.024;13.828;2023-09-19T08:05:59;2.83;;;1.23;;
9918;SDS011;4998;51.024;13.828;2023-09-19T08:08:27;2.87;;;1.30;;
9918;SDS011;4998;51.024;13.828;2023-09-19T08:10:54;1.30;;;1.03;;
9918;SDS011;4998;51.024;13.828;2023-09-19T08:13:22;1.03;;;1.00;;
9918;SDS011;4998;51.024;13.828;2023-09-19T08:15:49;1.23;;;1.10;;
9918;SDS011;4998;51.024;13.828;2023-09-19T08:18:18;3.60;;;1.20;;
9918;SDS011;4998;51.024;13.828;2023-09-19T08:20:51;1.20;;;1.10;;
9918;SDS011;4998;51.024;13.828;2023-09-19T08:23:19;1.30;;;1.20;;
9918;SDS011;4998;51.024;13.828;2023-09-19T08:25:46;2.20;;;1.40;;
9918;SDS011;4998;51.024;13.828;2023-09-19T08:28:13;1.13;;;1.07;;
9918;SDS011;4998;51.024;13.828;2023-09-19T08:30:45;1.90;;;1.27;;
9918;SDS011;4998;51.024;13.828;2023-09-19T08:33:12;1.57;;;1.20;;
9918;SDS011;4998;51.024;13.828;2023-09-19T08:35:40;1.77;;;1.20;;
9918;SDS011;4998;51.024;13.828;2023-09-19T08:38:09;1.40;;;1.30;;
9918;SDS011;4998;51.024;13.828;2023-09-19T08:40:38;1.23;;;1.00;;
9918;SDS011;4998;51.024;13.828;2023-09-19T08:43:07;1.30;;;1.20;;
9918;SDS011;4998;51.024;13.828;2023-09-19T08:45:34;1.20;;;1.10;;
9918;SDS011;4998;51.024;13.828;2023-09-19T08:48:07;1.30;;;1.10;;
9918;SDS011;4998;51.024;13.828;2023-09-19T08:50:43;1.20;;;1.10;;
9918;SDS011;4998;51.024;13.828;2023-09-19T08:53:24;1.50;;;1.17;;
9918;SDS011;4998;51.024;13.828;2023-09-19T08:55:57;1.50;;;1.40;;
9918;SDS011;4998;51.024;13.828;2023-09-19T08:58:28;1.70;;;1.20;;
9918;SDS011;4998;51.024;13.828;2023-09-19T09:01:06;1.83;;;1.23;;
9918;SDS011;4998;51.024;13.828;2023-09-19T09:03:35;2.80;;;1.27;;
9918;SDS011;4998;51.024;13.828;2023-09-19T09:06:06;1.50;;;1.40;;
9918;SDS011;4998;51.024;13.828;2023-09-19T09:08:37;1.50;;;1.40;;
9918;SDS011;4998;51.024;13.828;2023-09-19T09:11:06;1.40;;;1.30;;
9918;SDS011;4998;51.024;13.828;2023-09-19T09:13:34;1.67;;;1.20;;
9918;SDS011;4998;51.024;13.828;2023-09-19T09:16:04;2.33;;;1.60;;
9918;SDS011;4998;51.024;13.828;2023-09-19T09:18:31;1.40;;;1.30;;
9918;SDS011;4998;51.024;13.828;2023-09-19T09:20:58;1.37;;;1.27;;
9918;SDS011;4998;51.024;13.828;2023-09-19T09:23:26;1.63;;;1.30;;
9918;SDS011;4998;51.024;13.828;2023-09-19T09:25:56;1.20;;;1.10;;
9918;SDS011;4998;51.024;13.828;2023-09-19T09:28:27;1.60;;;1.27;;
9918;SDS011;4998;51.024;13.828;2023-09-19T09:30:56;1.33;;;1.10;;
9918;SDS011;4998;51.024;13.828;2023-09-19T09:33:24;1.30;;;1.20;;
9918;SDS011;4998;51.024;13.828;2023-09-19T09:35:54;1.30;;;1.17;;
9918;SDS011;4998;51.024;13.828;2023-09-19T09:38:23;1.10;;;1.00;;
9918;SDS011;4998;51.024;13.828;2023-09-19T09:40:58;1.27;;;1.17;;
9918;SDS011;4998;51.024;13.828;2023-09-19T09:43:32;2.00;;;1.20;;
9918;SDS011;4998;51.024;13.828;2023-09-19T09:46:07;1.27;;;1.17;;
9918;SDS011;4998;51.024;13.828;2023-09-19T09:48:56;1.50;;;1.40;;
9918;SDS011;4998;51.024;13.828;2023-09-19T09:51:43;1.00;;;1.00;;
9918;SDS011;4998;51.024;13.828;2023-09-19T09:54:14;1.43;;;1.20;;
9918;SDS011;4998;51.024;13.828;2023-09-19T09:56:56;2.90;;;1.40;;
9918;SDS011;4998;51.024;13.828;2023-09-19T09:59:48;1.90;;;1.20;;
9918;SDS011;4998;51.024;13.828;2023-09-19T10:02:17;1.87;;;1.30;;
9918;SDS011;4998;51.024;13.828;2023-09-19T10:04:49;1.57;;;1.10;;
9918;SDS011;4998;51.024;13.828;2023-09-19T10:07:39;1.93;;;1.47;;
9918;SDS011;4998;51.024;13.828;2023-09-19T10:10:14;1.80;;;1.30;;
9918;SDS011;4998;51.024;13.828;2023-09-19T10:13:04;5.23;;;1.13;;
9918;SDS011;4998;51.024;13.828;2023-09-19T10:15:33;1.57;;;1.30;;
9918;SDS011;4998;51.024;13.828;2023-09-19T10:18:01;2.07;;;1.40;;
9918;SDS011;4998;51.024;13.828;2023-09-19T10:20:36;1.20;;;1.10;;
9918;SDS011;4998;51.024;13.828;2023-09-19T10:23:05;3.27;;;1.30;;
9918;SDS011;4998;51.024;13.828;2023-09-19T10:25:38;1.53;;;1.10;;
9918;SDS011;4998;51.024;13.828;2023-09-19T10:28:08;2.47;;;1.20;;
9918;SDS011;4998;51.024;13.828;2023-09-19T10:30:37;1.10;;;1.10;;
9918;SDS011;4998;51.024;13.828;2023-09-19T10:33:10;1.43;;;1.33;;
9918;SDS011;4998;51.024;13.828;2023-09-19T10:35:39;2.10;;;1.30;;
9918;SDS011;4998;51.024;13.828;2023-09-19T10:38:09;1.90;;;1.30;;
9918;SDS011;4998;51.024;13.828;2023-09-19T10:40:38;1.10;;;1.10;;
9918;SDS011;4998;51.024;13.828;2023-09-19T10:43:12;2.00;;;1.00;;
9918;SDS011;4998;51.024;13.828;2023-09-19T10:45:44;6.30;;;1.23;;
9918;SDS011;4998;51.024;13.828;2023-09-19T10:48:14;1.30;;;1.20;;
9918;SDS011;4998;51.024;13.828;2023-09-19T10:50:46;1.20;;;1.10;;
9918;SDS011;4998;51.024;13.828;2023-09-19T10:53:16;1.63;;;1.40;;
9918;SDS011;4998;51.024;13.828;2023-09-19T10:55:48;1.03;;;1.03;;
9918;SDS011;4998;51.024;13.828;2023-09-19T10:58:33;1.27;;;1.17;;
9918;SDS011;4998;51.024;13.828;2023-09-19T11:01:04;1.40;;;1.23;;
9918;SDS011;4998;51.024;13.828;2023-09-19T11:03:37;1.10;;;1.03;;
9918;SDS011;4998;51.024;13.828;2023-09-19T11:06:09;1.40;;;1.10;;
9918;SDS011;4998;51.024;13.828;2023-09-19T11:08:52;1.30;;;1.20;;
9918;SDS011;4998;51.024;13.828;2023-09-19T11:11:39;1.53;;;1.40;;
9918;SDS011;4998;51.024;13.828;2023-09-19T11:14:14;1.30;;;1.20;;
9918;SDS011;4998;51.024;13.828;2023-09-19T11:17:31;1.40;;;1.30;;
9918;SDS011;4998;51.024;13.828;2023-09-19T11:23:22;1.40;;;1.10;;
9918;SDS011;4998;51.024;13.828;2023-09-19T11:25:51;1.97;;;1.30;;
9918;SDS011;4998;51.024;13.828;2023-09-19T11:28:34;1.17;;;1.10;;
9918;SDS011;4998;51.024;13.828;2023-09-19T11:34:41;1.47;;;1.37;;
9918;SDS011;4998;51.024;13.828;2023-09-19T11:40:36;1.30;;;1.20;;
9918;SDS011;4998;51.024;13.828;2023-09-19T11:46:01;1.50;;;1.40;;
9918;SDS011;4998;51.024;13.828;2023-09-19T11:48:32;1.70;;;1.60;;
9918;SDS011;4998;51.024;13.828;2023-09-19T11:51:10;1.50;;;1.40;;
9918;SDS011;4998;51.024;13.828;2023-09-19T11:53:44;1.93;;;1.33;;
9918;SDS011;4998;51.024;13.828;2023-09-19T11:56:13;1.60;;;1.50;;
9918;SDS011;4998;51.024;13.828;2023-09-19T11:58:43;1.80;;;1.70;;
9918;SDS011;4998;51.024;13.828;2023-09-19T12:01:12;2.13;;;1.60;;
9918;SDS011;4998;51.024;13.828;2023-09-19T12:03:46;2.40;;;1.60;;
9918;SDS011;4998;51.024;13.828;2023-09-19T12:06:20;1.97;;;1.50;;
9918;SDS011;4998;51.024;13.828;2023-09-19T12:08:49;1.83;;;1.70;;
9918;SDS011;4998;51.024;13.828;2023-09-19T12:11:19;1.73;;;1.50;;
9918;SDS011;4998;51.024;13.828;2023-09-19T12:13:48;2.17;;;1.60;;
9918;SDS011;4998;51.024;13.828;2023-09-19T12:16:17;1.40;;;1.30;;
9918;SDS011;4998;51.024;13.828;2023-09-19T12:18:47;2.37;;;1.43;;
9918;SDS011;4998;51.024;13.828;2023-09-19T12:21:27;1.50;;;1.40;;
9918;SDS011;4998;51.024;13.828;2023-09-19T12:24:03;1.53;;;1.43;;
9918;SDS011;4998;51.024;13.828;2023-09-19T12:26:38;1.10;;;1.10;;
9918;SDS011;4998;51.024;13.828;2023-09-19T12:29:11;1.40;;;1.30;;
9918;SDS011;4998;51.024;13.828;2023-09-19T12:31:47;1.57;;;1.33;;
9918;SDS011;4998;51.024;13.828;2023-09-19T12:34:16;1.67;;;1.57;;
9918;SDS011;4998;51.024;13.828;2023-09-19T12:36:47;1.67;;;1.30;;
9918;SDS011;4998;51.024;13.828;2023-09-19T12:39:24;1.43;;;1.20;;
9918;SDS011;4998;51.024;13.828;2023-09-19T12:41:52;1.40;;;1.30;;
9918;SDS011;4998;51.024;13.828;2023-09-19T12:44:20;1.20;;;1.10;;
9918;SDS011;4998;51.024;13.828;2023-09-19T12:46:49;1.33;;;1.23;;
9918;SDS011;4998;51.024;13.828;2023-09-19T12:49:19;3.17;;;1.40;;
9918;SDS011;4998;51.024;13.828;2023-09-19T12:51:49;1.40;;;1.30;;
9918;SDS011;4998;51.024;13.828;2023-09-19T12:54:24;1.37;;;1.27;;
9918;SDS011;4998;51.024;13.828;2023-09-19T12:56:51;2.47;;;2.27;;
9918;SDS011;4998;51.024;13.828;2023-09-19T12:59:19;2.20;;;1.83;;
9918;SDS011;4998;51.024;13.828;2023-09-19T13:02:03;5.50;;;1.40;;
9918;SDS011;4998;51.024;13.828;2023-09-19T13:04:32;2.80;;;1.27;;
9918;SDS011;4998;51.024;13.828;2023-09-19T13:07:06;1.40;;;1.20;;
9918;SDS011;4998;51.024;13.828;2023-09-19T13:09:35;1.37;;;1.27;;
9918;SDS011;4998;51.024;13.828;2023-09-19T13:12:04;2.23;;;1.40;;
9918;SDS011;4998;51.024;13.828;2023-09-19T13:14:32;1.43;;;1.33;;
9918;SDS011;4998;51.024;13.828;2023-09-19T13:17:03;1.53;;;1.43;;
9918;SDS011;4998;51.024;13.828;2023-09-19T13:19:37;1.57;;;1.30;;
9918;SDS011;4998;51.024;13.828;2023-09-19T13:25:05;1.50;;;1.30;;
9918;SDS011;4998;51.024;13.828;2023-09-19T13:27:33;1.40;;;1.30;;
9918;SDS011;4998;51.024;13.828;2023-09-19T13:30:00;1.23;;;1.17;;
9918;SDS011;4998;51.024;13.828;2023-09-19T13:32:27;3.17;;;2.20;;
9918;SDS011;4998;51.024;13.828;2023-09-19T13:34:54;4.20;;;3.80;;
9918;SDS011;4998;51.024;13.828;2023-09-19T13:37:23;2.03;;;1.90;;
9918;SDS011;4998;51.024;13.828;2023-09-19T13:39:52;1.90;;;1.53;;
9918;SDS011;4998;51.024;13.828;2023-09-19T13:42:20;2.20;;;2.00;;
9918;SDS011;4998;51.024;13.828;2023-09-19T13:44:47;8.50;;;7.70;;
9918;SDS011;4998;51.024;13.828;2023-09-19T13:47:14;4.50;;;4.10;;
9918;SDS011;4998;51.024;13.828;2023-09-19T13:49:41;2.43;;;2.23;;
9918;SDS011;4998;51.024;13.828;2023-09-19T13:52:09;2.10;;;1.90;;
9918;SDS011;4998;51.024;13.828;2023-09-19T13:54:38;1.77;;;1.63;;
9918;SDS011;4998;51.024;13.828;2023-09-19T13:57:07;8.03;;;1.40;;
9918;SDS011;4998;51.024;13.828;2023-09-19T13:59:35;1.80;;;1.50;;
9918;SDS011;4998;51.024;13.828;2023-09-19T14:02:02;1.87;;;1.60;;
9918;SDS011;4998;51.024;13.828;2023-09-19T14:11:16;2.47;;;1.57;;
9918;SDS011;4998;51.024;13.828;2023-09-19T14:13:45;1.47;;;1.20;;
9918;SDS011;4998;51.024;13.828;2023-09-19T14:16:14;1.47;;;1.37;;
9918;SDS011;4998;51.024;13.828;2023-09-19T14:18:42;1.60;;;1.50;;
9918;SDS011;4998;51.024;13.828;2023-09-19T14:21:12;1.50;;;1.40;;
9918;SDS011;4998;51.024;13.828;2023-09-19T14:23:39;1.80;;;1.50;;
9918;SDS011;4998;51.024;13.828;2023-09-19T14:26:08;1.60;;;1.50;;
9918;SDS011;4998;51.024;13.828;2023-09-19T14:28:35;1.60;;;1.50;;
9918;SDS011;4998;51.024;13.828;2023-09-19T14:31:05;1.77;;;1.67;;
9918;SDS011;4998;51.024;13.828;2023-09-19T14:33:33;1.83;;;1.50;;
9918;SDS011;4998;51.024;13.828;2023-09-19T14:36:04;2.13;;;1.67;;
9918;SDS011;4998;51.024;13.828;2023-09-19T14:38:33;3.17;;;1.67;;
9918;SDS011;4998;51.024;13.828;2023-09-19T14:41:02;1.70;;;1.60;;
9918;SDS011;4998;51.024;13.828;2023-09-19T14:43:30;1.80;;;1.70;;
9918;SDS011;4998;51.024;13.828;2023-09-19T14:45:57;1.93;;;1.50;;
9918;SDS011;4998;51.024;13.828;2023-09-19T14:48:30;5.83;;;2.00;;
9918;SDS011;4998;51.024;13.828;2023-09-19T14:51:01;1.70;;;1.60;;
9918;SDS011;4998;51.024;13.828;2023-09-19T14:53:29;1.87;;;1.77;;
9918;SDS011;4998;51.024;13.828;2023-09-19T14:55:56;2.30;;;1.50;;
9918;SDS011;4998;51.024;13.828;2023-09-19T14:58:23;2.17;;;1.80;;
9918;SDS011;4998;51.024;13.828;2023-09-19T15:00:51;1.80;;;1.70;;
9918;SDS011;4998;51.024;13.828;2023-09-19T15:03:18;1.73;;;1.63;;
9918;SDS011;4998;51.024;13.828;2023-09-19T15:05:47;2.07;;;1.70;;
9918;SDS011;4998;51.024;13.828;2023-09-19T15:08:14;1.70;;;1.60;;
9918;SDS011;4998;51.024;13.828;2023-09-19T15:10:41;3.97;;;1.90;;
9918;SDS011;4998;51.024;13.828;2023-09-19T15:13:16;1.80;;;1.70;;
9918;SDS011;4998;51.024;13.828;2023-09-19T15:15:43;2.30;;;1.90;;
9918;SDS011;4998;51.024;13.828;2023-09-19T15:18:12;1.60;;;1.50;;
9918;SDS011;4998;51.024;13.828;2023-09-19T15:20:42;2.70;;;1.57;;
9918;SDS011;4998;51.024;13.828;2023-09-19T15:23:11;1.47;;;1.37;;
9918;SDS011;4998;51.024;13.828;2023-09-19T15:25:39;1.60;;;1.50;;
9918;SDS011;4998;51.024;13.828;2023-09-19T15:28:13;1.80;;;1.70;;
9918;SDS011;4998;51.024;13.828;2023-09-19T15:30:40;2.13;;;1.80;;
9918;SDS011;4998;51.024;13.828;2023-09-19T15:33:07;3.07;;;2.03;;
9918;SDS011;4998;51.024;13.828;2023-09-19T15:35:34;2.37;;;1.70;;
9918;SDS011;4998;51.024;13.828;2023-09-19T15:38:02;1.53;;;1.43;;
9918;SDS011;4998;51.024;13.828;2023-09-19T15:40:31;2.23;;;1.90;;
9918;SDS011;4998;51.024;13.828;2023-09-19T15:42:58;2.00;;;1.90;;
9918;SDS011;4998;51.024;13.828;2023-09-19T15:45:25;1.97;;;1.80;;
9918;SDS011;4998;51.024;13.828;2023-09-19T15:47:53;1.90;;;1.60;;
9918;SDS011;4998;51.024;13.828;2023-09-19T15:50:20;1.70;;;1.60;;
9918;SDS011;4998;51.024;13.828;2023-09-19T15:52:49;1.97;;;1.87;;
9918;SDS011;4998;51.024;13.828;2023-09-19T15:55:21;1.90;;;1.80;;
9918;SDS011;4998;51.024;13.828;2023-09-19T15:57:49;1.83;;;1.73;;
9918;SDS011;4998;51.024;13.828;2023-09-19T16:00:17;1.70;;;1.60;;
9918;SDS011;4998;51.024;13.828;2023-09-19T16:02:45;1.97;;;1.77;;
9918;SDS011;4998;51.024;13.828;2023-09-19T16:05:15;2.30;;;2.10;;
9918;SDS011;4998;51.024;13.828;2023-09-19T16:07:43;2.20;;;1.70;;
9918;SDS011;4998;51.024;13.828;2023-09-19T16:10:10;1.70;;;1.60;;